Time;durP1;ratioP1;P1;durP2;ratioP2;P2;SDS_P1;SDS_P2;PMS_P1;PMS_P2;Temp;Humidity;BMP_temperature;BMP_pressure;BME280_temperature;BME280_humidity;BME280_pressure;Samples;Min_cycle;Max_cycle;Signal;HPM_P1;HPM_P2
2023/12/09 00:04:58;;;;;;;95.20;44.30;;;;;;;-3.04;86.44;98910.95;226616;1272;22679;-73
2023/12/09 00:10:02;;;;;;;81.90;41.00;;;;;;;-3.11;86.76;98903.20;226593;1274;23509;-73
2023/12/09 00:15:05;;;;;;;82.10;40.60;;;;;;;-3.20;86.26;98897.91;226566;1272;26544;-73
2023/12/09 00:20:08;;;;;;;73.80;38.10;;;;;;;-3.30;86.52;98902.16;226579;1274;22596;-74
2023/12/09 00:25:10;;;;;;;79.30;37.90;;;;;;;-3.40;85.74;98899.04;226374;1251;22818;-71
2023/12/09 00:30:12;;;;;;;90.90;42.30;;;;;;;-3.51;86.06;98898.00;226599;1269;25552;-71
2023/12/09 00:35:14;;;;;;;109.90;49.90;;;;;;;-3.60;85.88;98903.39;226593;1274;22714;-72
2023/12/09 00:40:18;;;;;;;113.60;51.00;;;;;;;-3.68;85.74;98903.54;226541;1272;22579;-71
2023/12/09 00:45:21;;;;;;;112.50;51.90;;;;;;;-3.74;85.96;98905.48;226505;1274;22729;-71
2023/12/09 00:50:23;;;;;;;131.90;57.80;;;;;;;-3.74;85.84;98909.43;226499;1274;22577;-71
2023/12/09 00:55:25;;;;;;;117.70;54.50;;;;;;;-3.72;86.00;98914.50;226450;1275;22664;-71
2023/12/09 01:00:27;;;;;;;120.40;52.00;;;;;;;-3.71;85.86;98910.27;226571;1272;22567;-71
2023/12/09 01:05:29;;;;;;;108.50;50.90;;;;;;;-3.67;85.91;98919.11;226590;1272;22674;-72
2023/12/09 01:10:31;;;;;;;103.90;48.60;;;;;;;-3.60;86.18;98918.55;226499;1273;22585;-73
2023/12/09 01:15:33;;;;;;;98.30;48.70;;;;;;;-3.54;86.21;98916.41;226520;1274;24785;-71
2023/12/09 01:20:35;;;;;;;92.40;47.00;;;;;;;-3.44;86.12;98917.69;226571;1272;25664;-71
2023/12/09 01:25:37;;;;;;;92.20;45.00;;;;;;;-3.34;86.40;98912.20;226568;1267;22592;-71
2023/12/09 01:30:39;;;;;;;87.90;44.20;;;;;;;-3.22;86.60;98910.07;226585;1272;22572;-71
2023/12/09 01:35:41;;;;;;;76.90;37.10;;;;;;;-3.07;87.05;98907.19;226412;1270;22593;-70
2023/12/09 01:40:43;;;;;;;73.20;35.70;;;;;;;-2.90;87.00;98902.10;226422;1270;22775;-71
2023/12/09 01:45:47;;;;;;;71.10;33.80;;;;;;;-2.72;87.52;98905.22;226526;1273;22547;-72
2023/12/09 01:50:50;;;;;;;64.60;33.50;;;;;;;-2.57;86.91;98904.77;226616;1272;22569;-73
2023/12/09 01:55:52;;;;;;;56.10;31.00;;;;;;;-2.49;86.59;98909.72;226587;1269;22761;-71
2023/12/09 02:00:55;;;;;;;55.50;30.50;;;;;;;-2.41;86.99;98909.72;226548;1272;22544;-72
2023/12/09 02:05:57;;;;;;;62.50;32.90;;;;;;;-2.34;86.73;98916.96;226609;1272;23035;-71
2023/12/09 02:11:10;;;;;;;62.60;34.10;;;;;;;-2.26;86.91;98909.71;226426;1273;22558;-72
2023/12/09 02:16:24;;;;;;;60.20;33.40;;;;;;;-2.20;86.88;98916.89;226289;1275;22523;-72
2023/12/09 02:21:26;;;;;;;62.90;33.80;;;;;;;-2.15;86.70;98917.42;226838;1270;22637;-72
2023/12/09 02:26:29;;;;;;;65.00;32.10;;;;;;;-2.10;86.51;98913.15;226361;1272;22536;-71
2023/12/09 02:31:37;;;;;;;64.20;33.90;;;;;;;-2.06;86.68;98915.55;226519;1272;24248;-71
2023/12/09 02:36:43;;;;;;;63.10;33.00;;;;;;;-2.03;86.50;98915.69;226557;1272;22630;-72
2023/12/09 02:41:46;;;;;;;64.30;32.80;;;;;;;-1.99;86.33;98921.33;226605;1272;22546;-71
2023/12/09 02:46:55;;;;;;;60.80;32.00;;;;;;;-1.99;86.64;98912.66;226617;1275;22739;-72
2023/12/09 02:51:58;;;;;;;58.90;31.70;;;;;;;-1.95;86.75;98909.13;226543;1267;26650;-71
2023/12/09 02:57:00;;;;;;;59.00;31.90;;;;;;;-1.90;86.34;98908.58;226390;1273;25278;-72
2023/12/09 03:02:02;;;;;;;63.70;34.70;;;;;;;-1.90;86.44;98912.54;226549;1270;23353;-71
2023/12/09 03:07:04;;;;;;;64.90;32.50;;;;;;;-1.91;86.31;98913.15;226326;1272;22605;-72
2023/12/09 03:12:06;;;;;;;62.00;33.20;;;;;;;-1.91;86.49;98902.09;226404;1273;22607;-73
2023/12/09 03:17:12;;;;;;;61.60;32.80;;;;;;;-1.89;86.51;98905.72;226415;1273;22621;-72
2023/12/09 03:22:14;;;;;;;59.20;31.90;;;;;;;-1.88;86.28;98902.71;226615;1269;22533;-72
2023/12/09 03:27:16;;;;;;;61.20;31.70;;;;;;;-1.87;86.26;98896.15;226480;1273;24313;-72
2023/12/09 03:32:18;;;;;;;58.90;30.90;;;;;;;-1.87;86.26;98883.56;226550;1272;22903;-71
2023/12/09 03:37:20;;;;;;;60.20;32.20;;;;;;;-1.86;86.76;98880.33;226523;1274;22526;-71
2023/12/09 03:42:22;;;;;;;58.40;31.00;;;;;;;-1.83;86.72;98884.11;226592;1272;25281;-73
2023/12/09 03:47:24;;;;;;;58.60;30.90;;;;;;;-1.80;86.69;98879.20;226618;1269;24232;-73
2023/12/09 03:52:31;;;;;;;54.60;29.40;;;;;;;-1.76;86.67;98885.33;226405;1269;22574;-72
2023/12/09 03:57:33;;;;;;;61.40;33.10;;;;;;;-1.72;86.81;98884.92;226617;1272;25514;-72
2023/12/09 04:02:35;;;;;;;55.80;29.90;;;;;;;-1.69;86.95;98883.64;226558;1272;22678;-73
2023/12/09 04:07:37;;;;;;;56.40;31.20;;;;;;;-1.69;86.86;98892.27;226384;1273;22586;-71
2023/12/09 04:12:40;;;;;;;55.70;31.20;;;;;;;-1.67;87.35;98896.63;226552;1269;24238;-72
2023/12/09 04:17:42;;;;;;;66.20;35.60;;;;;;;-1.65;87.11;98898.94;226620;1272;22576;-73
2023/12/09 04:22:44;;;;;;;63.70;33.70;;;;;;;-1.63;87.27;98899.26;226570;1272;22551;-72
2023/12/09 04:27:46;;;;;;;65.20;35.90;;;;;;;-1.61;87.24;98893.96;226421;1273;22565;-73
2023/12/09 04:32:48;;;;;;;62.40;34.60;;;;;;;-1.60;87.16;98892.86;226530;1272;22572;-73
2023/12/09 04:37:50;;;;;;;63.20;34.60;;;;;;;-1.57;87.27;98893.66;226631;1269;22544;-72
2023/12/09 04:42:52;;;;;;;69.80;37.00;;;;;;;-1.51;87.70;98887.39;226576;1272;25316;-73
2023/12/09 04:47:54;;;;;;;61.30;35.10;;;;;;;-1.45;87.42;98890.70;226300;1271;24361;-73
2023/12/09 04:52:57;;;;;;;50.80;29.00;;;;;;;-1.39;87.60;98890.82;226513;1272;22521;-73
2023/12/09 04:57:59;;;;;;;56.80;31.20;;;;;;;-1.36;87.43;98893.23;226565;1272;22949;-73
2023/12/09 05:03:01;;;;;;;54.40;30.50;;;;;;;-1.32;87.54;98885.11;226552;1272;22535;-73
2023/12/09 05:08:05;;;;;;;54.70;30.00;;;;;;;-1.26;87.92;98883.67;226437;1275;22533;-73
2023/12/09 05:13:07;;;;;;;45.60;26.90;;;;;;;-1.20;87.83;98874.86;226563;1265;22552;-72
2023/12/09 05:18:09;;;;;;;47.00;28.10;;;;;;;-1.12;87.94;98877.94;226538;1272;22550;-73
2023/12/09 05:23:12;;;;;;;42.50;25.50;;;;;;;-1.05;88.09;98874.83;226354;1275;22571;-72
2023/12/09 05:28:14;;;;;;;37.40;20.50;;;;;;;-0.98;88.09;98876.89;226579;1269;22553;-74
2023/12/09 05:33:16;;;;;;;34.50;21.00;;;;;;;-0.91;88.20;98874.66;226552;1272;22978;-74
2023/12/09 05:38:18;;;;;;;30.90;19.90;;;;;;;-0.85;87.95;98874.71;226596;1269;22544;-75
2023/12/09 05:43:20;;;;;;;28.20;18.60;;;;;;;-0.79;88.19;98870.34;226574;1272;22541;-76
2023/12/09 05:48:22;;;;;;;30.40;18.70;;;;;;;-0.76;87.96;98875.26;226583;1269;22670;-73
2023/12/09 05:53:24;;;;;;;31.30;18.20;;;;;;;-0.73;88.21;98868.80;226335;1274;22524;-73
2023/12/09 05:58:26;;;;;;;30.00;19.20;;;;;;;-0.69;88.05;98869.25;226490;1272;22569;-73
2023/12/09 06:03:28;;;;;;;30.20;20.80;;;;;;;-0.68;87.99;98872.27;226587;1272;22707;-73
2023/12/09 06:08:31;;;;;;;33.30;20.30;;;;;;;-0.68;87.81;98869.31;226545;1272;22525;-74
2023/12/09 06:13:33;;;;;;;27.40;18.00;;;;;;;-0.67;87.87;98875.47;226415;1275;22896;-74
2023/12/09 06:18:35;;;;;;;27.50;18.40;;;;;;;-0.67;87.83;98875.67;226434;1266;22538;-74
2023/12/09 06:23:37;;;;;;;28.30;17.00;;;;;;;-0.64;88.01;98879.06;226443;1274;22550;-74
2023/12/09 06:28:39;;;;;;;24.20;15.00;;;;;;;-0.61;87.88;98874.66;226532;1272;24225;-75
2023/12/09 06:33:41;;;;;;;23.00;14.40;;;;;;;-0.56;87.74;98881.35;226630;1269;22588;-74
2023/12/09 06:38:43;;;;;;;20.20;13.60;;;;;;;-0.52;87.68;98883.33;226519;1272;24254;-74
2023/12/09 06:43:46;;;;;;;18.00;13.60;;;;;;;-0.48;87.55;98883.17;226343;1274;23132;-75
2023/12/09 06:48:48;;;;;;;22.30;14.50;;;;;;;-0.44;87.64;98881.34;226382;1273;22552;-74
2023/12/09 06:53:50;;;;;;;19.30;11.00;;;;;;;-0.40;87.54;98879.77;226536;1272;22544;-73
2023/12/09 06:58:52;;;;;;;18.70;12.50;;;;;;;-0.36;87.46;98881.23;226401;1273;22604;-74
2023/12/09 07:03:55;;;;;;;19.40;13.30;;;;;;;-0.32;87.40;98883.33;226583;1269;22563;-75
2023/12/09 07:08:57;;;;;;;19.20;12.40;;;;;;;-0.27;87.23;98884.89;226740;1271;24177;-74
2023/12/09 07:13:59;;;;;;;20.30;13.70;;;;;;;-0.22;87.03;98881.73;226450;1273;22565;-75
2023/12/09 07:19:01;;;;;;;19.00;13.00;;;;;;;-0.18;87.38;98873.40;226558;1273;22599;-74
2023/12/09 07:24:04;;;;;;;20.00;13.20;;;;;;;-0.13;87.20;98878.55;226550;1272;22721;-74
2023/12/09 07:29:10;;;;;;;20.10;13.20;;;;;;;-0.07;87.03;98881.89;226638;1272;22828;-74
2023/12/09 07:34:16;;;;;;;22.00;14.40;;;;;;;-0.01;87.16;98882.50;226661;1272;22520;-73
2023/12/09 07:39:19;;;;;;;22.00;14.30;;;;;;;0.05;86.71;98888.98;226377;1275;24912;-74
2023/12/09 07:44:22;;;;;;;22.60;14.30;;;;;;;0.09;87.00;98887.43;226422;1262;22538;-76
2023/12/09 07:49:24;;;;;;;21.20;14.80;;;;;;;0.14;86.62;98880.27;226390;1272;23011;-76
2023/12/09 07:54:27;;;;;;;19.80;13.80;;;;;;;0.21;86.54;98881.08;226445;1266;22563;-74
2023/12/09 07:59:29;;;;;;;22.50;15.10;;;;;;;0.28;86.82;98874.51;226466;1261;22487;-74
2023/12/09 08:04:31;;;;;;;19.30;12.20;;;;;;;0.35;86.41;98880.18;226185;1266;22569;-74
2023/12/09 08:09:33;;;;;;;22.40;15.20;;;;;;;0.42;86.51;98880.52;226218;1269;24245;-76
2023/12/09 08:14:35;;;;;;;21.20;14.30;;;;;;;0.50;86.22;98877.41;226237;1266;22530;-75
2023/12/09 08:19:38;;;;;;;22.60;15.30;;;;;;;0.57;86.12;98876.69;225972;1269;22887;-74
2023/12/09 08:24:41;;;;;;;23.10;15.40;;;;;;;0.66;85.95;98875.59;226506;1266;22532;-77
2023/12/09 08:29:43;;;;;;;20.00;13.70;;;;;;;0.76;86.13;98874.66;226191;1267;22580;-76
2023/12/09 08:34:45;;;;;;;22.40;15.40;;;;;;;0.83;86.33;98880.45;226124;1255;23029;-78
2023/12/09 08:40:10;;;;;;;22.00;14.60;;;;;;;0.91;86.38;98882.75;225946;1254;22536;-78
2023/12/09 08:45:16;;;;;;;20.60;14.30;;;;;;;0.98;85.92;98885.20;226154;1257;22551;-74
2023/12/09 08:50:18;;;;;;;19.60;13.40;;;;;;;1.04;86.39;98880.51;226102;1256;24244;-74
2023/12/09 08:55:26;;;;;;;26.20;14.70;;;;;;;1.13;86.75;98876.61;226213;1256;24299;-74
2023/12/09 09:00:28;;;;;;;18.50;13.30;;;;;;;1.18;86.94;98880.20;226138;1268;22535;-75
2023/12/09 09:05:30;;;;;;;21.10;14.30;;;;;;;1.22;86.84;98884.01;226255;1263;22524;-76
2023/12/09 09:10:32;;;;;;;23.50;15.60;;;;;;;1.21;86.79;98886.34;226029;1267;22541;-77
2023/12/09 09:15:35;;;;;;;23.60;15.30;;;;;;;1.21;87.03;98884.15;226160;1267;22569;-74
2023/12/09 09:20:38;;;;;;;20.40;14.20;;;;;;;1.22;87.12;98883.34;226119;1269;22548;-76
2023/12/09 09:25:40;;;;;;;22.70;15.40;;;;;;;1.22;87.08;98879.84;226098;1256;22541;-77
2023/12/09 09:30:42;;;;;;;20.70;14.90;;;;;;;1.19;87.08;98879.08;226106;1255;22564;-78
2023/12/09 09:35:46;;;;;;;21.80;15.20;;;;;;;1.20;87.29;98873.77;226129;1256;22546;-75
2023/12/09 09:40:50;;;;;;;23.80;14.90;;;;;;;1.22;87.29;98870.14;226047;1251;23595;-77
2023/12/09 09:45:56;;;;;;;24.00;15.50;;;;;;;1.22;87.13;98866.49;226266;1270;22566;-77
2023/12/09 09:51:01;;;;;;;24.90;16.40;;;;;;;1.24;86.94;98861.50;226059;1263;22938;-76
2023/12/09 09:56:05;;;;;;;20.10;14.00;;;;;;;1.26;86.80;98851.93;226025;1266;22528;-77
2023/12/09 10:01:10;;;;;;;20.50;13.60;;;;;;;1.26;86.60;98851.08;226096;1271;22526;-77
2023/12/09 10:06:14;;;;;;;23.10;13.60;;;;;;;1.24;86.40;98843.77;226163;1261;22540;-78
2023/12/09 10:11:16;;;;;;;21.30;14.90;;;;;;;1.22;86.35;98844.33;226092;1256;22985;-76
2023/12/09 10:16:18;;;;;;;24.10;16.40;;;;;;;1.24;86.36;98834.08;225974;1270;22974;-78
2023/12/09 10:21:20;;;;;;;21.50;15.00;;;;;;;1.32;86.65;98834.77;226242;1272;23025;-79
2023/12/09 10:26:23;;;;;;;22.50;15.80;;;;;;;1.39;86.42;98835.95;226024;1256;22554;-80
2023/12/09 10:31:27;;;;;;;22.70;15.70;;;;;;;1.44;86.18;98831.36;225684;1269;23056;-78
2023/12/09 10:36:30;;;;;;;20.90;14.50;;;;;;;1.48;85.97;98834.70;225839;1271;23279;-80
2023/12/09 10:41:32;;;;;;;22.30;15.80;;;;;;;1.54;85.84;98832.27;225919;1271;22577;-76
2023/12/09 10:46:35;;;;;;;21.00;13.30;;;;;;;1.57;85.57;98822.81;225955;1263;22575;-76
2023/12/09 10:51:40;;;;;;;20.80;14.60;;;;;;;1.57;85.43;98811.83;225927;1256;22524;-75
2023/12/09 10:56:43;;;;;;;20.40;14.40;;;;;;;1.65;85.42;98807.35;225768;1272;22544;-76
2023/12/09 11:01:46;;;;;;;23.20;15.50;;;;;;;1.61;85.07;98806.96;226182;1260;23008;-75
2023/12/09 11:06:50;;;;;;;24.20;16.10;;;;;;;1.52;85.26;98808.12;225904;1255;22525;-76
2023/12/09 11:11:52;;;;;;;26.00;16.60;;;;;;;1.50;85.60;98807.75;225939;1253;22542;-75
2023/12/09 11:16:57;;;;;;;25.30;15.60;;;;;;;1.48;85.79;98803.80;225954;1266;22581;-78
2023/12/09 11:22:00;;;;;;;21.70;14.50;;;;;;;1.48;85.93;98801.56;225659;1259;108841;-76
2023/12/09 11:27:03;;;;;;;22.80;15.90;;;;;;;1.46;86.01;98797.86;225918;1257;22536;-76
2023/12/09 11:32:07;;;;;;;24.50;14.90;;;;;;;1.44;86.04;98797.87;226017;1269;24269;-79
2023/12/09 11:37:11;;;;;;;23.40;14.50;;;;;;;1.46;85.97;98795.27;225952;1272;22536;-75
2023/12/09 11:42:13;;;;;;;20.90;14.60;;;;;;;1.48;85.77;98794.58;226061;1259;22540;-74
2023/12/09 11:47:18;;;;;;;22.20;15.00;;;;;;;1.46;85.56;98796.88;226166;1257;22582;-76
2023/12/09 11:52:21;;;;;;;23.20;16.40;;;;;;;1.41;85.46;98796.56;225998;1271;22569;-76
2023/12/09 11:57:23;;;;;;;19.80;13.80;;;;;;;1.43;85.63;98784.27;226008;1263;22552;-76
2023/12/09 12:02:26;;;;;;;23.40;16.10;;;;;;;1.45;85.69;98783.75;225988;1274;22537;-75
2023/12/09 12:07:29;;;;;;;22.90;15.10;;;;;;;1.43;85.67;98780.14;225968;1275;22603;-77
2023/12/09 12:12:31;;;;;;;21.40;14.20;;;;;;;1.39;85.54;98777.98;225891;1274;22560;-77
2023/12/09 12:17:40;;;;;;;24.90;16.80;;;;;;;1.36;85.56;98769.74;226469;1272;22541;-76
2023/12/09 12:22:44;;;;;;;21.10;14.50;;;;;;;1.31;85.58;98764.77;226214;1275;25064;-76
2023/12/09 12:27:46;;;;;;;23.10;15.80;;;;;;;1.28;85.56;98763.27;226201;1274;22558;-76
2023/12/09 12:32:56;;;;;;;20.80;14.10;;;;;;;1.28;85.66;98760.05;226267;1274;22595;-77
2023/12/09 12:37:58;;;;;;;21.00;14.50;;;;;;;1.25;85.61;98750.90;226667;1272;24281;-77
2023/12/09 12:43:04;;;;;;;22.20;14.10;;;;;;;1.23;85.68;98746.75;226474;1275;25843;-76
2023/12/09 12:48:06;;;;;;;20.90;13.40;;;;;;;1.23;85.75;98743.64;226502;1272;24641;-76
2023/12/09 12:53:09;;;;;;;21.60;15.30;;;;;;;1.20;85.58;98739.14;226421;1275;22533;-77
2023/12/09 12:58:11;;;;;;;22.90;15.60;;;;;;;1.21;85.82;98735.59;226575;1272;22556;-76
2023/12/09 13:03:13;;;;;;;20.90;14.00;;;;;;;1.21;85.86;98724.55;226611;1272;22543;-76
2023/12/09 13:08:16;;;;;;;23.70;14.80;;;;;;;1.23;85.72;98720.20;226220;1275;23002;-75
2023/12/09 13:13:18;;;;;;;21.30;13.80;;;;;;;1.20;85.57;98718.55;226620;1272;22552;-76
2023/12/09 13:18:22;;;;;;;21.20;13.60;;;;;;;1.14;85.42;98716.13;226393;1275;22569;-76
2023/12/09 13:23:24;;;;;;;23.60;15.60;;;;;;;1.10;85.52;98707.45;226592;1275;23008;-76
2023/12/09 13:28:27;;;;;;;24.10;16.60;;;;;;;1.07;85.62;98705.95;226502;1274;22527;-78
2023/12/09 13:33:29;;;;;;;23.60;15.10;;;;;;;1.04;85.62;98705.28;226471;1275;23005;-75
2023/12/09 13:38:31;;;;;;;21.80;15.30;;;;;;;1.00;85.60;98703.06;226427;1275;22563;-76
2023/12/09 13:43:33;;;;;;;23.30;15.20;;;;;;;0.94;85.57;98696.10;226633;1254;22540;-75
2023/12/09 13:48:35;;;;;;;25.90;16.80;;;;;;;0.89;85.47;98696.05;226441;1275;22592;-76
2023/12/09 13:53:38;;;;;;;22.50;15.70;;;;;;;0.86;85.82;98693.52;226283;1275;22559;-76
2023/12/09 13:58:40;;;;;;;22.70;15.90;;;;;;;0.84;85.55;98691.95;226496;1275;22599;-77
2023/12/09 14:03:42;;;;;;;23.20;16.90;;;;;;;0.82;85.72;98695.55;226381;1275;22540;-77
2023/12/09 14:08:44;;;;;;;23.10;15.80;;;;;;;0.78;85.42;98696.09;226309;1275;22533;-76
2023/12/09 14:13:46;;;;;;;23.20;15.50;;;;;;;0.75;85.63;98689.27;226255;1275;22550;-76
2023/12/09 14:18:48;;;;;;;24.10;16.80;;;;;;;0.69;85.87;98688.17;226536;1273;22585;-77
2023/12/09 14:23:51;;;;;;;25.70;16.60;;;;;;;0.62;85.69;98682.34;226563;1272;22547;-77
2023/12/09 14:28:55;;;;;;;22.90;15.70;;;;;;;0.57;86.08;98674.14;226458;1272;22566;-76
2023/12/09 14:33:57;;;;;;;26.80;16.60;;;;;;;0.50;86.43;98667.39;226462;1274;22561;-77
2023/12/09 14:38:59;;;;;;;26.30;17.00;;;;;;;0.46;86.49;98664.67;226521;1272;22551;-75
2023/12/09 14:44:02;;;;;;;25.30;16.70;;;;;;;0.40;86.44;98654.63;226400;1272;22546;-76
2023/12/09 14:49:09;;;;;;;25.70;17.20;;;;;;;0.35;86.30;98651.86;226594;1269;22528;-75
2023/12/09 14:54:12;;;;;;;26.50;18.10;;;;;;;0.31;86.57;98643.21;226553;1272;22555;-76
2023/12/09 14:59:18;;;;;;;24.80;14.70;;;;;;;0.22;86.46;98638.90;226327;1275;22607;-77
2023/12/09 15:04:20;;;;;;;28.00;17.30;;;;;;;0.16;86.61;98647.23;226591;1272;22596;-76
2023/12/09 15:09:22;;;;;;;27.10;17.00;;;;;;;0.15;86.99;98657.04;226548;1272;22544;-77
2023/12/09 15:14:25;;;;;;;23.50;16.60;;;;;;;0.15;87.07;98654.08;226539;1272;22551;-77
2023/12/09 15:19:27;;;;;;;25.00;17.30;;;;;;;0.16;86.82;98645.86;226588;1274;22839;-76
2023/12/09 15:24:29;;;;;;;27.80;18.30;;;;;;;0.16;87.17;98637.17;226438;1275;24401;-76
2023/12/09 15:29:31;;;;;;;29.40;19.40;;;;;;;0.17;86.95;98633.41;226559;1275;22555;-76
2023/12/09 15:34:33;;;;;;;26.70;18.40;;;;;;;0.21;86.98;98628.48;226448;1273;22583;-76
2023/12/09 15:39:39;;;;;;;27.40;17.90;;;;;;;0.23;87.15;98619.98;226433;1273;22542;-78
2023/12/09 15:44:43;;;;;;;28.20;18.10;;;;;;;0.25;86.92;98611.52;226398;1273;22555;-77
2023/12/09 15:49:45;;;;;;;30.00;18.60;;;;;;;0.25;87.04;98608.40;226465;1273;25916;-75
2023/12/09 15:54:47;;;;;;;27.50;18.00;;;;;;;0.25;87.33;98601.30;226355;1274;22666;-75
2023/12/09 15:59:53;;;;;;;27.80;17.40;;;;;;;0.23;87.10;98592.59;226532;1275;22567;-76
2023/12/09 16:04:55;;;;;;;29.30;19.40;;;;;;;0.22;87.17;98587.79;226427;1266;22567;-77
2023/12/09 16:09:57;;;;;;;28.90;18.00;;;;;;;0.18;86.78;98588.50;226457;1275;22558;-77
2023/12/09 16:14:59;;;;;;;28.20;17.70;;;;;;;0.16;87.15;98585.58;226480;1275;22529;-77
2023/12/09 16:20:06;;;;;;;29.30;18.70;;;;;;;0.14;87.04;98584.23;226551;1273;22525;-76
2023/12/09 16:25:09;;;;;;;27.40;17.00;;;;;;;0.11;87.10;98581.14;226329;1275;25319;-76
2023/12/09 16:30:11;;;;;;;27.40;18.30;;;;;;;0.09;87.02;98576.97;226279;1274;22521;-77
2023/12/09 16:35:13;;;;;;;27.30;17.80;;;;;;;0.10;87.24;98580.55;226607;1251;22537;-76
2023/12/09 16:40:15;;;;;;;27.20;17.40;;;;;;;0.10;87.20;98583.29;226445;1275;22617;-76
2023/12/09 16:45:17;;;;;;;28.30;19.20;;;;;;;0.11;87.24;98562.98;226327;1274;22567;-77
2023/12/09 16:50:19;;;;;;;31.90;20.80;;;;;;;0.12;87.21;98547.30;226405;1275;22624;-77
2023/12/09 16:55:22;;;;;;;34.70;22.40;;;;;;;0.07;87.25;98539.25;226617;1271;22571;-76
2023/12/09 17:00:24;;;;;;;34.50;21.70;;;;;;;-0.03;87.11;98527.45;226587;1271;24241;-76
2023/12/09 17:05:27;;;;;;;38.80;23.60;;;;;;;-0.15;86.93;98516.84;226403;1273;23107;-76
2023/12/09 17:10:29;;;;;;;38.20;23.70;;;;;;;-0.28;87.04;98510.71;226377;1275;22545;-76
2023/12/09 17:15:31;;;;;;;35.80;21.80;;;;;;;-0.40;87.20;98512.65;226436;1273;22536;-76
2023/12/09 17:20:33;;;;;;;44.10;27.10;;;;;;;-0.44;87.46;98510.77;226555;1272;22536;-76
2023/12/09 17:25:35;;;;;;;39.50;24.80;;;;;;;-0.42;87.47;98506.23;226369;1261;22569;-76
2023/12/09 17:30:38;;;;;;;52.00;32.60;;;;;;;-0.40;87.53;98510.95;226413;1273;26590;-75
2023/12/09 17:35:40;;;;;;;55.50;32.70;;;;;;;-0.37;87.50;98510.86;226613;1273;22626;-76
2023/12/09 17:40:42;;;;;;;52.00;31.60;;;;;;;-0.32;87.61;98503.90;226359;1275;22546;-76
2023/12/09 17:45:44;;;;;;;46.40;28.50;;;;;;;-0.27;87.55;98492.98;226518;1275;22536;-76
2023/12/09 17:50:47;;;;;;;44.20;27.20;;;;;;;-0.24;87.56;98482.46;226560;1273;23028;-76
2023/12/09 17:55:49;;;;;;;41.30;23.50;;;;;;;-0.21;87.48;98473.39;226559;1273;22567;-75
2023/12/09 18:00:51;;;;;;;40.70;24.70;;;;;;;-0.17;87.62;98465.63;226363;1270;22536;-76
2023/12/09 18:05:54;;;;;;;40.90;22.60;;;;;;;-0.13;87.63;98449.20;226614;1275;22609;-75
2023/12/09 18:10:56;;;;;;;39.10;22.60;;;;;;;-0.12;87.86;98433.17;226393;1272;23112;-75
2023/12/09 18:15:58;;;;;;;36.80;22.40;;;;;;;-0.14;87.49;98435.27;226387;1273;22605;-76
2023/12/09 18:21:01;;;;;;;44.20;27.40;;;;;;;-0.14;87.66;98428.95;226288;1274;24978;-75
2023/12/09 18:26:04;;;;;;;45.50;27.60;;;;;;;-0.09;87.79;98413.54;226540;1272;22570;-75
2023/12/09 18:31:06;;;;;;;47.90;29.40;;;;;;;-0.07;87.45;98400.55;226374;1274;22551;-75
2023/12/09 18:36:08;;;;;;;49.40;29.70;;;;;;;-0.06;87.46;98387.63;226587;1272;24627;-76
2023/12/09 18:41:11;;;;;;;48.20;28.90;;;;;;;-0.09;87.56;98382.23;226355;1273;22579;-76
2023/12/09 18:46:13;;;;;;;45.90;27.50;;;;;;;-0.18;87.57;98376.21;226435;1274;22622;-77
2023/12/09 18:51:18;;;;;;;44.10;26.60;;;;;;;-0.28;87.46;98374.52;226562;1273;22545;-76
2023/12/09 18:56:23;;;;;;;44.40;27.00;;;;;;;-0.45;87.19;98379.74;226517;1274;22547;-76
2023/12/09 19:01:28;;;;;;;37.90;22.70;;;;;;;-0.61;87.07;98366.77;226542;1272;23272;-76
2023/12/09 19:06:30;;;;;;;37.10;23.30;;;;;;;-0.74;87.37;98379.00;226497;1274;22610;-76
2023/12/09 19:11:47;;;;;;;37.50;23.90;;;;;;;-0.80;87.52;98371.61;226297;1270;24513;-76
2023/12/09 19:16:49;;;;;;;39.10;23.90;;;;;;;-0.84;87.40;98369.52;226391;1274;24234;-76
2023/12/09 19:21:52;;;;;;;37.50;23.20;;;;;;;-0.87;87.62;98355.02;226403;1269;25347;-78
2023/12/09 19:26:54;;;;;;;39.20;24.40;;;;;;;-0.90;87.45;98339.79;226573;1273;25593;-75
2023/12/09 19:31:56;;;;;;;41.00;24.20;;;;;;;-0.91;87.49;98329.64;226357;1273;22607;-75
2023/12/09 19:36:58;;;;;;;38.20;24.50;;;;;;;-0.93;87.70;98312.89;226476;1273;22600;-76
2023/12/09 19:42:00;;;;;;;44.30;26.20;;;;;;;-1.00;87.69;98301.67;226540;1272;22567;-74
2023/12/09 19:47:04;;;;;;;52.20;30.30;;;;;;;-1.03;88.08;98288.31;226532;1272;22593;-75
2023/12/09 19:52:06;;;;;;;54.50;30.40;;;;;;;-0.97;87.75;98271.95;226481;1269;25402;-75
2023/12/09 19:57:08;;;;;;;53.60;32.40;;;;;;;-0.88;88.15;98268.23;226521;1272;22739;-74
2023/12/09 20:02:10;;;;;;;60.00;35.00;;;;;;;-0.78;88.40;98266.64;226274;1262;22549;-75
2023/12/09 20:07:15;;;;;;;52.40;32.70;;;;;;;-0.70;88.14;98256.16;226407;1275;22600;-75
2023/12/09 20:12:18;;;;;;;55.50;32.20;;;;;;;-0.61;88.29;98241.89;226603;1275;22681;-75
2023/12/09 20:17:21;;;;;;;53.20;31.90;;;;;;;-0.53;88.22;98242.03;226422;1273;22922;-75
2023/12/09 20:22:25;;;;;;;56.00;33.10;;;;;;;-0.49;88.14;98238.20;226614;1270;22604;-76
2023/12/09 20:27:29;;;;;;;58.60;33.50;;;;;;;-0.46;87.94;98222.62;226734;1272;22535;-76
2023/12/09 20:32:32;;;;;;;53.50;32.20;;;;;;;-0.42;87.89;98221.30;226380;1270;22751;-76
2023/12/09 20:37:34;;;;;;;58.30;31.90;;;;;;;-0.38;87.95;98220.68;226401;1270;22646;-75
2023/12/09 20:42:39;;;;;;;61.10;34.30;;;;;;;-0.34;87.92;98205.83;226411;1265;22610;-74
2023/12/09 20:47:43;;;;;;;64.30;35.60;;;;;;;-0.30;88.14;98198.59;226352;1274;22636;-74
2023/12/09 20:52:45;;;;;;;65.80;36.90;;;;;;;-0.30;87.67;98187.47;226583;1274;22544;-75
2023/12/09 20:57:49;;;;;;;60.10;34.10;;;;;;;-0.36;87.85;98180.88;226594;1270;22627;-75
2023/12/09 21:02:56;;;;;;;62.90;35.90;;;;;;;-0.49;87.39;98181.17;226446;1269;25430;-75
2023/12/09 21:08:01;;;;;;;57.70;33.70;;;;;;;-0.68;87.28;98177.25;226647;1272;22540;-75
2023/12/09 21:13:03;;;;;;;60.70;35.80;;;;;;;-0.86;87.40;98172.98;226433;1273;24232;-76
2023/12/09 21:18:08;;;;;;;64.30;36.70;;;;;;;-1.02;87.36;98169.84;226604;1272;22594;-76
2023/12/09 21:23:13;;;;;;;68.90;39.40;;;;;;;-1.15;87.74;98163.50;226371;1273;23870;-75
2023/12/09 21:28:15;;;;;;;67.70;37.60;;;;;;;-1.20;87.58;98151.33;226448;1274;22709;-76
2023/12/09 21:33:19;;;;;;;68.70;36.80;;;;;;;-1.24;87.69;98148.75;226636;1272;25658;-77
2023/12/09 21:38:24;;;;;;;67.50;38.60;;;;;;;-1.28;87.99;98135.98;226630;1256;24254;-74
2023/12/09 21:43:26;;;;;;;66.10;36.50;;;;;;;-1.33;87.43;98137.77;226483;1273;22587;-75
2023/12/09 21:48:28;;;;;;;68.20;34.50;;;;;;;-1.38;87.88;98117.65;226607;1271;25253;-76
2023/12/09 21:53:30;;;;;;;58.50;31.30;;;;;;;-1.45;87.71;98093.30;226644;1275;22539;-76
2023/12/09 21:58:32;;;;;;;51.00;29.30;;;;;;;-1.50;87.37;98080.63;226556;1269;22585;-76
2023/12/09 22:03:34;;;;;;;50.50;27.70;;;;;;;-1.53;87.88;98087.42;226514;1269;22553;-76
2023/12/09 22:08:42;;;;;;;45.30;26.10;;;;;;;-1.55;87.77;98084.03;226322;1274;22546;-75
2023/12/09 22:13:44;;;;;;;54.80;29.60;;;;;;;-1.60;87.53;98087.35;226340;1275;22568;-76
2023/12/09 22:18:48;;;;;;;52.90;29.70;;;;;;;-1.66;87.71;98082.23;226610;1268;22573;-75
2023/12/09 22:23:52;;;;;;;56.60;30.40;;;;;;;-1.74;87.72;98078.34;226605;1268;22659;-75
2023/12/09 22:29:02;;;;;;;57.40;29.40;;;;;;;-1.79;87.65;98070.48;226410;1275;22627;-75
2023/12/09 22:34:04;;;;;;;50.20;27.50;;;;;;;-1.83;87.42;98071.54;226553;1272;23203;-75
2023/12/09 22:39:07;;;;;;;50.80;27.90;;;;;;;-1.87;87.39;98062.70;226592;1272;22577;-76
2023/12/09 22:44:10;;;;;;;53.00;29.40;;;;;;;-1.88;87.46;98049.90;226595;1272;22521;-75
2023/12/09 22:49:13;;;;;;;50.20;28.10;;;;;;;-1.90;87.54;98038.30;226601;1269;22569;-74
2023/12/09 22:54:15;;;;;;;50.20;26.40;;;;;;;-1.91;87.58;98036.14;226606;1272;22613;-75
2023/12/09 22:59:17;;;;;;;48.00;25.80;;;;;;;-1.92;87.61;98028.81;226417;1273;22903;-76
2023/12/09 23:04:20;;;;;;;47.60;26.30;;;;;;;-1.93;87.61;98020.42;226572;1272;22554;-76